Time;durP1;ratioP1;P1;durP2;ratioP2;P2;SDS_P1;SDS_P2;PMS_P1;PMS_P2;Temp;Humidity;BMP_temperature;BMP_pressure;BME280_temperature;BME280_humidity;BME280_pressure;Samples;Min_cycle;Max_cycle;Signal;HPM_P1;HPM_P2
2021/06/23 00:02:15;;;;;;;15.40;10.23;;;16.70;99.90;;;;;;5015105;28;20172;-85
2021/06/23 00:04:42;;;;;;;13.55;9.30;;;16.70;99.90;;;;;;4996779;28;20038;-84
2021/06/23 00:07:08;;;;;;;13.05;9.07;;;16.70;99.90;;;;;;5022390;28;20583;-85
2021/06/23 00:09:33;;;;;;;22.33;11.50;;;16.70;99.90;;;;;;4998266;28;20132;-85
2021/06/23 00:11:59;;;;;;;16.85;10.70;;;16.70;99.90;;;;;;5014573;28;20091;-84
2021/06/23 00:14:25;;;;;;;13.73;9.65;;;16.70;99.90;;;;;;5023449;28;20029;-84
2021/06/23 00:16:51;;;;;;;20.30;12.43;;;16.70;99.90;;;;;;5003599;28;20057;-84
2021/06/23 00:19:17;;;;;;;16.73;11.10;;;16.70;99.90;;;;;;5044312;28;20025;-85
2021/06/23 00:21:43;;;;;;;15.27;9.75;;;16.70;99.90;;;;;;4994079;28;20484;-84
2021/06/23 00:24:11;;;;;;;14.88;10.27;;;16.70;99.90;;;;;;4993308;28;20034;-84
2021/06/23 00:26:37;;;;;;;14.32;10.30;;;16.70;99.90;;;;;;4996856;28;20455;-85
2021/06/23 00:29:05;;;;;;;19.40;11.32;;;16.70;99.90;;;;;;5016102;28;20687;-84
2021/06/23 00:31:31;;;;;;;13.93;9.73;;;16.70;99.90;;;;;;4996327;28;20030;-85
2021/06/23 00:34:03;;;;;;;14.77;8.90;;;16.70;99.90;;;;;;5029441;28;20116;-86
2021/06/23 00:36:29;;;;;;;16.15;10.43;;;16.70;99.90;;;;;;5016892;28;20029;-86
2021/06/23 00:38:54;;;;;;;18.50;11.23;;;16.70;99.90;;;;;;5025228;28;20537;-85
2021/06/23 00:41:20;;;;;;;20.25;11.80;;;16.70;99.90;;;;;;5017767;28;20060;-85
2021/06/23 00:43:50;;;;;;;22.70;13.25;;;16.80;99.90;;;;;;5036937;28;20637;-85
2021/06/23 00:46:16;;;;;;;18.50;11.40;;;16.80;99.90;;;;;;5019758;28;20112;-85
2021/06/23 00:48:42;;;;;;;17.83;11.63;;;16.80;99.90;;;;;;5004123;28;20097;-84
2021/06/23 00:51:14;;;;;;;17.05;10.98;;;16.70;99.90;;;;;;5015685;28;20037;-84
2021/06/23 00:53:48;;;;;;;16.90;10.93;;;16.70;99.90;;;;;;5033886;28;20108;-85
2021/06/23 00:56:15;;;;;;;19.27;11.55;;;16.70;99.90;;;;;;5017303;28;20511;-84
2021/06/23 00:58:42;;;;;;;17.42;10.70;;;16.80;99.90;;;;;;5022664;28;20455;-85
2021/06/23 01:01:16;;;;;;;17.25;11.38;;;16.80;99.90;;;;;;5017968;28;20079;-85
2021/06/23 01:03:42;;;;;;;15.88;10.68;;;16.80;99.90;;;;;;4980813;28;20480;-85
2021/06/23 01:06:11;;;;;;;17.17;11.25;;;16.80;99.90;;;;;;5012851;28;20029;-85
2021/06/23 01:08:37;;;;;;;14.98;9.77;;;16.80;99.90;;;;;;5023580;28;20045;-86
2021/06/23 01:11:07;;;;;;;16.23;10.52;;;16.80;99.90;;;;;;5005720;28;20103;-85
2021/06/23 01:14:02;;;;;;;14.25;9.90;;;16.80;99.90;;;;;;5035490;28;20025;-86
2021/06/23 01:16:30;;;;;;;13.90;9.85;;;16.80;99.90;;;;;;5023388;28;20040;-85
2021/06/23 01:18:57;;;;;;;15.35;9.60;;;16.80;99.90;;;;;;5032741;28;20029;-87
2021/06/23 01:21:25;;;;;;;16.23;10.75;;;16.80;99.90;;;;;;5030311;28;20055;-87
2021/06/23 01:23:51;;;;;;;14.73;9.30;;;16.80;99.90;;;;;;5016326;28;20045;-85
2021/06/23 01:26:17;;;;;;;14.90;10.00;;;16.80;99.90;;;;;;5019118;28;20026;-86
2021/06/23 01:28:47;;;;;;;18.77;11.75;;;16.80;99.90;;;;;;5021670;28;20037;-87
2021/06/23 01:31:17;;;;;;;17.55;11.07;;;16.90;99.90;;;;;;5029496;28;20045;-87
2021/06/23 01:33:46;;;;;;;18.63;10.52;;;16.80;99.90;;;;;;5016220;28;20030;-86
2021/06/23 01:36:13;;;;;;;16.85;10.57;;;16.80;99.90;;;;;;5003983;28;20037;-86
2021/06/23 01:38:39;;;;;;;19.25;11.90;;;16.80;99.90;;;;;;4965252;23;20141;-86
2021/06/23 01:41:06;;;;;;;15.73;10.70;;;16.80;99.90;;;;;;4924422;28;21052;-86
2021/06/23 01:43:33;;;;;;;16.67;10.80;;;16.70;99.90;;;;;;4972354;28;20062;-86
2021/06/23 01:46:02;;;;;;;18.27;11.68;;;16.70;99.90;;;;;;4956949;28;20069;-86
2021/06/23 01:48:28;;;;;;;17.70;11.82;;;16.70;99.90;;;;;;4956661;28;20059;-86
2021/06/23 01:50:59;;;;;;;19.15;11.48;;;16.70;99.90;;;;;;4924915;28;20035;-85
2021/06/23 01:53:35;;;;;;;23.95;11.75;;;16.60;99.90;;;;;;4956286;28;20142;-85
2021/06/23 01:56:03;;;;;;;17.10;11.70;;;16.60;99.90;;;;;;4938785;28;20030;-86
2021/06/23 01:58:32;;;;;;;16.23;11.23;;;16.60;99.90;;;;;;4955831;28;20039;-86
2021/06/23 02:01:16;;;;;;;17.58;11.70;;;16.60;99.90;;;;;;4957708;28;20039;-86
2021/06/23 02:03:55;;;;;;;17.60;11.00;;;16.60;99.90;;;;;;4956289;28;20517;-86
2021/06/23 02:06:23;;;;;;;17.13;10.90;;;16.60;99.90;;;;;;4956012;28;20035;-86
2021/06/23 02:09:01;;;;;;;17.98;11.07;;;16.60;99.90;;;;;;4953060;28;20115;-85
2021/06/23 02:11:38;;;;;;;15.60;11.20;;;16.60;99.90;;;;;;4956003;28;20085;-86
2021/06/23 02:14:37;;;;;;;17.13;10.73;;;16.60;99.90;;;;;;4953846;28;20026;-86
2021/06/23 02:17:24;;;;;;;15.65;10.68;;;16.60;99.90;;;;;;4970239;28;20086;-86
2021/06/23 02:20:02;;;;;;;16.20;11.15;;;16.60;99.90;;;;;;4951986;28;20038;-85
2021/06/23 02:22:40;;;;;;;18.67;11.38;;;16.60;99.90;;;;;;4955111;28;20027;-86
2021/06/23 02:25:14;;;;;;;16.52;10.77;;;16.60;99.90;;;;;;4971746;28;20031;-86
2021/06/23 02:28:01;;;;;;;16.92;10.75;;;16.60;99.90;;;;;;4958606;28;20106;-86
2021/06/23 02:30:26;;;;;;;17.67;11.27;;;16.60;99.90;;;;;;4937660;28;20134;-86
2021/06/23 02:32:57;;;;;;;16.15;10.27;;;16.60;99.90;;;;;;4955994;28;20486;-85
2021/06/23 02:35:34;;;;;;;14.80;10.43;;;16.60;99.90;;;;;;4971348;28;20033;-86
2021/06/23 02:38:02;;;;;;;17.23;10.25;;;16.60;99.90;;;;;;4955663;28;20030;-87
2021/06/23 02:40:28;;;;;;;18.48;11.35;;;16.50;99.90;;;;;;4955192;28;20034;-85
2021/06/23 02:43:03;;;;;;;16.73;11.32;;;16.60;99.90;;;;;;4956390;28;20041;-85
2021/06/23 02:45:30;;;;;;;17.55;11.75;;;16.50;99.90;;;;;;4955499;28;20035;-86
2021/06/23 02:47:57;;;;;;;14.75;10.27;;;16.60;99.90;;;;;;4955160;28;20023;-85
2021/06/23 02:50:59;;;;;;;17.67;10.77;;;16.60;99.90;;;;;;4941286;28;20177;-85
2021/06/23 02:53:28;;;;;;;14.77;9.95;;;16.60;99.90;;;;;;4970193;28;20034;-86
2021/06/23 02:55:55;;;;;;;14.50;10.32;;;16.50;99.90;;;;;;4955286;28;20493;-85
2021/06/23 02:58:21;;;;;;;14.20;10.13;;;16.50;99.90;;;;;;4939501;28;20109;-86
2021/06/23 03:00:52;;;;;;;13.73;9.77;;;16.50;99.90;;;;;;4948050;28;20504;-85
2021/06/23 03:03:20;;;;;;;14.95;10.52;;;16.60;99.90;;;;;;4951759;28;20041;-86
2021/06/23 03:05:46;;;;;;;16.55;10.02;;;16.50;99.90;;;;;;4970874;28;20053;-86
2021/06/23 03:08:13;;;;;;;16.70;10.98;;;16.60;99.90;;;;;;4935676;28;20066;-85
2021/06/23 03:10:43;;;;;;;16.48;10.32;;;16.50;99.90;;;;;;4955195;28;20066;-85
2021/06/23 03:13:09;;;;;;;16.05;10.82;;;16.50;99.90;;;;;;4953311;28;20054;-86
2021/06/23 03:16:05;;;;;;;18.00;10.68;;;16.50;99.90;;;;;;4958972;28;20023;-85
2021/06/23 03:18:38;;;;;;;17.17;11.32;;;16.60;99.90;;;;;;4971104;28;20023;-85
2021/06/23 03:21:06;;;;;;;21.35;11.48;;;16.50;99.90;;;;;;4954578;28;20034;-85
2021/06/23 03:23:34;;;;;;;17.52;10.63;;;16.40;99.90;;;;;;4952595;28;20084;-85
2021/06/23 03:26:02;;;;;;;16.83;11.20;;;16.50;99.90;;;;;;4954269;28;20037;-84
2021/06/23 03:28:28;;;;;;;16.27;10.35;;;16.40;99.90;;;;;;4955249;28;20118;-85
2021/06/23 03:30:57;;;;;;;17.90;11.35;;;16.30;99.90;;;;;;4958245;28;20058;-84
2021/06/23 03:33:23;;;;;;;19.88;11.90;;;16.20;99.90;;;;;;4953834;28;20579;-85
2021/06/23 03:36:12;;;;;;;18.30;11.50;;;16.20;99.90;;;;;;4950182;28;20039;-85
2021/06/23 03:38:38;;;;;;;17.00;10.50;;;16.10;99.90;;;;;;4954309;28;20026;-85
2021/06/23 03:41:05;;;;;;;16.98;11.05;;;16.10;99.90;;;;;;4930582;29;20058;-85
2021/06/23 03:43:31;;;;;;;19.25;10.85;;;16.10;99.90;;;;;;4948827;28;20030;-86
2021/06/23 03:45:57;;;;;;;19.63;11.20;;;16.10;99.90;;;;;;4954408;28;20130;-85
2021/06/23 03:48:38;;;;;;;16.58;10.73;;;16.10;99.90;;;;;;4920877;28;20043;-87
2021/06/23 03:51:09;;;;;;;18.38;11.25;;;16.10;99.90;;;;;;4969564;28;20464;-84
2021/06/23 03:53:35;;;;;;;16.55;10.60;;;16.10;99.90;;;;;;4953550;28;20020;-84
2021/06/23 03:56:04;;;;;;;14.95;9.80;;;16.10;99.90;;;;;;4939211;28;20126;-84
2021/06/23 03:58:31;;;;;;;15.05;10.43;;;16.10;99.90;;;;;;4939047;28;20393;-84
2021/06/23 04:00:58;;;;;;;16.55;10.98;;;16.10;99.90;;;;;;4938254;28;20401;-85
2021/06/23 04:03:40;;;;;;;15.55;10.23;;;16.10;99.90;;;;;;4941233;28;20042;-84
2021/06/23 04:06:31;;;;;;;17.38;10.70;;;16.10;99.90;;;;;;4966815;28;20043;-84
2021/06/23 04:08:59;;;;;;;15.35;10.00;;;16.10;99.90;;;;;;4952731;28;20035;-84
2021/06/23 04:11:26;;;;;;;15.50;9.95;;;16.10;99.90;;;;;;4939906;28;20727;-84
2021/06/23 04:13:52;;;;;;;20.17;11.23;;;16.10;99.90;;;;;;4957236;28;20422;-84
2021/06/23 04:16:18;;;;;;;14.80;10.57;;;16.10;99.90;;;;;;4942530;28;20038;-85
2021/06/23 04:18:44;;;;;;;17.77;11.63;;;16.10;99.90;;;;;;4958040;28;20038;-84
2021/06/23 04:21:14;;;;;;;13.82;9.57;;;16.10;99.90;;;;;;4927396;28;20070;-83
2021/06/23 04:23:42;;;;;;;17.67;10.30;;;16.10;99.90;;;;;;4955002;28;20039;-84
2021/06/23 04:26:08;;;;;;;18.23;11.05;;;16.10;99.90;;;;;;4958057;28;20137;-84
2021/06/23 04:28:34;;;;;;;15.13;10.02;;;16.20;99.90;;;;;;4941874;28;20038;-83
2021/06/23 04:31:00;;;;;;;16.95;10.80;;;16.20;99.90;;;;;;4973148;28;20385;-84
2021/06/23 04:33:26;;;;;;;16.00;10.80;;;16.20;99.90;;;;;;4956786;28;20102;-85
2021/06/23 04:36:02;;;;;;;14.48;9.73;;;16.20;99.90;;;;;;4944715;28;20027;-84
2021/06/23 04:38:28;;;;;;;15.77;10.05;;;16.20;99.90;;;;;;4957437;28;20856;-84
2021/06/23 04:40:54;;;;;;;13.68;9.77;;;16.30;99.90;;;;;;4957329;28;20031;-84
2021/06/23 04:43:19;;;;;;;16.48;10.45;;;16.30;99.90;;;;;;4956904;28;20560;-84
2021/06/23 04:45:46;;;;;;;16.15;10.45;;;16.30;99.90;;;;;;4956941;28;20026;-84
2021/06/23 04:48:12;;;;;;;15.48;9.35;;;16.30;99.90;;;;;;4941540;28;20030;-85
2021/06/23 04:50:39;;;;;;;14.80;9.50;;;16.30;99.90;;;;;;4957127;28;20022;-85
2021/06/23 04:53:10;;;;;;;15.13;9.88;;;16.40;99.90;;;;;;4957607;28;20033;-84
2021/06/23 04:55:38;;;;;;;14.43;9.10;;;16.50;99.90;;;;;;4956494;28;20371;-84
2021/06/23 04:58:13;;;;;;;18.00;11.23;;;16.50;99.90;;;;;;4943969;28;20061;-84
2021/06/23 05:00:39;;;;;;;14.93;9.75;;;16.60;99.90;;;;;;4940693;28;20494;-84
2021/06/23 05:03:09;;;;;;;14.18;9.20;;;16.60;99.90;;;;;;4919941;28;20031;-85
2021/06/23 05:05:35;;;;;;;14.07;9.63;;;16.60;99.90;;;;;;4956215;28;20046;-85
2021/06/23 05:08:01;;;;;;;12.43;8.50;;;16.60;99.90;;;;;;4956965;28;20034;-84
2021/06/23 05:10:26;;;;;;;14.20;9.35;;;16.70;99.90;;;;;;4922984;28;20027;-84
2021/06/23 05:12:52;;;;;;;14.30;9.45;;;16.70;99.90;;;;;;4921792;29;20042;-84
2021/06/23 05:15:18;;;;;;;14.77;9.32;;;16.70;99.90;;;;;;4933318;28;20061;-84
2021/06/23 05:17:44;;;;;;;14.63;9.85;;;16.70;99.90;;;;;;4957018;28;20031;-84
2021/06/23 05:20:11;;;;;;;16.20;9.95;;;16.70;99.90;;;;;;4955638;28;20231;-84
2021/06/23 05:22:36;;;;;;;19.52;11.07;;;16.70;99.90;;;;;;4953640;28;20537;-85
2021/06/23 05:25:03;;;;;;;16.38;9.95;;;16.70;99.90;;;;;;4956235;28;20066;-85
2021/06/23 05:27:29;;;;;;;14.13;8.80;;;16.70;99.90;;;;;;4940693;28;20043;-85
2021/06/23 05:29:54;;;;;;;13.05;8.23;;;16.70;99.90;;;;;;4955942;28;20038;-85
2021/06/23 05:32:20;;;;;;;12.82;9.02;;;16.70;99.90;;;;;;4956423;28;20054;-84
2021/06/23 05:34:46;;;;;;;12.95;8.93;;;16.70;99.90;;;;;;4921261;28;20038;-84
2021/06/23 05:37:12;;;;;;;11.70;7.68;;;16.70;99.90;;;;;;4957266;28;20031;-85
2021/06/23 05:39:37;;;;;;;12.68;8.40;;;16.70;99.90;;;;;;4972137;28;20105;-85
2021/06/23 05:42:04;;;;;;;14.20;9.13;;;16.70;99.90;;;;;;4971924;28;20061;-85
2021/06/23 05:44:29;;;;;;;13.65;8.93;;;16.70;99.90;;;;;;4972789;28;20409;-86
2021/06/23 05:46:56;;;;;;;13.43;9.13;;;16.80;99.90;;;;;;4954896;28;20031;-85
2021/06/23 05:49:22;;;;;;;13.23;8.35;;;16.90;99.90;;;;;;4947802;28;20126;-85
2021/06/23 05:51:48;;;;;;;13.93;8.95;;;16.90;99.90;;;;;;4951921;28;20516;-85
2021/06/23 05:54:14;;;;;;;14.45;8.32;;;17.00;99.90;;;;;;4938877;28;20035;-85
2021/06/23 05:56:39;;;;;;;13.07;8.75;;;17.00;99.90;;;;;;4970378;28;20568;-85
2021/06/23 05:59:05;;;;;;;13.88;8.27;;;17.10;99.90;;;;;;4936552;29;20059;-85
2021/06/23 06:01:31;;;;;;;11.52;7.70;;;17.10;99.90;;;;;;4971470;28;20129;-85
2021/06/23 06:03:57;;;;;;;13.50;8.95;;;17.20;99.90;;;;;;4937400;28;20031;-84
2021/06/23 06:06:23;;;;;;;12.80;7.88;;;17.20;99.90;;;;;;4955379;28;20150;-85
2021/06/23 06:08:49;;;;;;;10.93;7.65;;;17.30;99.90;;;;;;4958678;28;20121;-85
2021/06/23 06:11:14;;;;;;;13.43;8.25;;;17.30;99.90;;;;;;4954020;28;20042;-85
2021/06/23 06:13:40;;;;;;;13.65;9.00;;;17.40;99.90;;;;;;4938637;28;20043;-84
2021/06/23 06:16:06;;;;;;;11.73;8.05;;;17.50;99.90;;;;;;4940615;28;20039;-84
2021/06/23 06:18:32;;;;;;;14.95;9.07;;;17.70;99.90;;;;;;4940075;28;20117;-84
2021/06/23 06:20:58;;;;;;;14.60;8.63;;;17.80;99.90;;;;;;4926159;28;20043;-84
2021/06/23 06:23:28;;;;;;;12.63;7.93;;;17.80;99.90;;;;;;4956885;28;20046;-83
2021/06/23 06:25:55;;;;;;;13.55;8.35;;;17.90;99.90;;;;;;4953436;28;20034;-85
2021/06/23 06:28:21;;;;;;;11.35;8.02;;;17.90;99.90;;;;;;4971857;28;20722;-84
2021/06/23 06:30:47;;;;;;;11.82;7.47;;;17.80;99.90;;;;;;4961026;28;20121;-84
2021/06/23 06:33:13;;;;;;;12.43;7.70;;;17.70;99.90;;;;;;4954497;28;20107;-84
2021/06/23 06:35:39;;;;;;;11.93;7.30;;;17.70;99.90;;;;;;4954060;28;20047;-84
2021/06/23 06:38:04;;;;;;;11.07;7.82;;;17.70;99.90;;;;;;4939147;28;20446;-85
2021/06/23 06:40:30;;;;;;;11.15;7.30;;;17.70;99.90;;;;;;4955035;28;20039;-84
2021/06/23 06:42:56;;;;;;;12.45;7.75;;;17.70;99.90;;;;;;4955124;28;20065;-84
2021/06/23 06:45:23;;;;;;;10.63;7.28;;;17.70;99.90;;;;;;4955208;28;20031;-84
2021/06/23 06:47:49;;;;;;;12.13;7.28;;;17.60;99.90;;;;;;4952058;28;20039;-85
2021/06/23 06:50:15;;;;;;;11.05;7.20;;;17.60;99.90;;;;;;4954430;28;20133;-84
2021/06/23 06:52:41;;;;;;;11.63;7.63;;;17.60;99.90;;;;;;4958803;28;20027;-85
2021/06/23 06:55:07;;;;;;;10.70;7.72;;;17.60;99.90;;;;;;4954085;28;20074;-85
2021/06/23 06:57:34;;;;;;;10.63;7.75;;;17.70;99.90;;;;;;4938936;28;20070;-84
2021/06/23 07:00:00;;;;;;;9.85;7.00;;;17.90;99.90;;;;;;4954861;28;20095;-85
2021/06/23 07:02:26;;;;;;;11.27;6.97;;;18.00;99.90;;;;;;4962152;28;20040;-84
2021/06/23 07:04:52;;;;;;;9.95;6.95;;;18.20;99.90;;;;;;4938849;28;20405;-84
2021/06/23 07:07:17;;;;;;;8.48;6.40;;;18.40;99.90;;;;;;4953562;28;20035;-84
2021/06/23 07:09:43;;;;;;;10.35;6.90;;;18.70;99.90;;;;;;4922619;28;20250;-84
2021/06/23 07:12:09;;;;;;;10.68;7.03;;;18.90;99.90;;;;;;4944059;28;20035;-84
2021/06/23 07:14:35;;;;;;;9.75;6.60;;;18.90;99.90;;;;;;4954340;28;20489;-85
2021/06/23 07:17:01;;;;;;;9.38;6.30;;;19.00;99.90;;;;;;4938646;28;20039;-85
2021/06/23 07:19:26;;;;;;;9.98;6.72;;;19.00;99.90;;;;;;4922540;28;20027;-84
2021/06/23 07:21:52;;;;;;;7.28;5.53;;;18.90;99.90;;;;;;4923143;28;20035;-85
2021/06/23 07:24:19;;;;;;;8.70;6.00;;;18.90;99.90;;;;;;4954797;28;20042;-85
2021/06/23 07:26:47;;;;;;;7.57;5.60;;;18.80;99.90;;;;;;4951175;28;20032;-84
2021/06/23 07:29:14;;;;;;;7.78;5.05;;;18.80;99.90;;;;;;4936223;28;20047;-85
2021/06/23 07:32:03;;;;;;;7.38;5.75;;;18.80;99.90;;;;;;4921375;28;20085;-85
2021/06/23 07:37:01;;;;;;;8.68;5.93;;;18.70;99.90;;;;;;4972349;28;19913;-85
2021/06/23 07:39:27;;;;;;;8.60;5.82;;;18.70;99.90;;;;;;4956049;28;20041;-85
2021/06/23 07:41:53;;;;;;;8.40;5.72;;;18.70;99.90;;;;;;4954712;28;20053;-85
2021/06/23 07:44:23;;;;;;;10.75;6.72;;;18.80;99.90;;;;;;4954495;28;20085;-85
2021/06/23 07:46:52;;;;;;;9.70;6.60;;;18.80;99.90;;;;;;4952459;28;20031;-85
2021/06/23 07:49:20;;;;;;;7.25;5.57;;;18.90;99.90;;;;;;4923481;28;20034;-86
2021/06/23 07:51:56;;;;;;;10.02;6.80;;;19.00;99.90;;;;;;4954734;28;20408;-85
2021/06/23 08:08:12;;;;;;;7.72;5.25;;;19.20;99.90;;;;;;4956619;28;20474;-84
2021/06/23 08:13:08;;;;;;;9.85;6.13;;;19.20;99.90;;;;;;4945459;28;20526;-84
2021/06/23 08:15:39;;;;;;;7.63;5.80;;;19.30;99.90;;;;;;4944345;28;20034;-84
2021/06/23 08:18:07;;;;;;;7.47;5.65;;;19.40;99.90;;;;;;4946892;28;20022;-85
2021/06/23 08:20:33;;;;;;;9.85;6.60;;;19.50;99.90;;;;;;4951321;28;20034;-84
2021/06/23 08:23:00;;;;;;;9.32;6.25;;;19.70;99.90;;;;;;4953815;28;20034;-85
2021/06/23 08:25:25;;;;;;;9.27;6.07;;;19.90;99.90;;;;;;4952535;28;20044;-84
2021/06/23 08:27:52;;;;;;;9.73;6.38;;;20.10;99.90;;;;;;4948159;28;20114;-84
2021/06/23 08:30:18;;;;;;;10.07;6.03;;;20.20;99.90;;;;;;4963469;28;20046;-84
2021/06/23 08:32:45;;;;;;;9.63;6.03;;;20.30;99.90;;;;;;4964534;28;20035;-85
2021/06/23 08:35:11;;;;;;;9.63;6.95;;;20.30;99.90;;;;;;4951232;28;20042;-84
2021/06/23 08:37:38;;;;;;;6.97;5.78;;;20.30;99.90;;;;;;4951551;28;20027;-85
2021/06/23 08:40:06;;;;;;;7.75;5.53;;;20.20;99.90;;;;;;4952504;28;20035;-84
2021/06/23 08:42:36;;;;;;;7.88;6.03;;;20.20;99.90;;;;;;4963211;28;20034;-84
2021/06/23 08:45:06;;;;;;;8.88;6.65;;;20.10;99.90;;;;;;4948610;28;21131;-84
2021/06/23 08:47:38;;;;;;;7.60;6.00;;;20.10;99.90;;;;;;4967684;28;20517;-84
2021/06/23 08:50:04;;;;;;;7.53;5.35;;;20.10;99.90;;;;;;4950625;29;20036;-85
2021/06/23 08:52:31;;;;;;;8.52;6.07;;;20.10;99.90;;;;;;4936721;28;20027;-84
2021/06/23 08:54:57;;;;;;;8.20;6.10;;;20.10;99.90;;;;;;4953368;28;20027;-84
2021/06/23 08:57:23;;;;;;;8.57;5.72;;;20.20;99.90;;;;;;4955016;28;20516;-85
2021/06/23 08:59:49;;;;;;;8.65;5.72;;;20.30;99.90;;;;;;4957442;28;20045;-85
2021/06/23 09:02:18;;;;;;;7.72;5.90;;;20.40;99.90;;;;;;4955091;28;20090;-85
2021/06/23 09:04:58;;;;;;;8.27;6.03;;;20.50;99.90;;;;;;4950284;28;20122;-84
2021/06/23 09:07:42;;;;;;;6.72;4.70;;;20.50;99.90;;;;;;4957681;28;20070;-86
2021/06/23 09:10:27;;;;;;;8.32;6.30;;;20.60;99.90;;;;;;4954993;28;20043;-85
2021/06/23 09:13:09;;;;;;;;;;;20.70;99.90;;;;;;4972981;28;20031;-84
2021/06/23 09:15:50;;;;;;;9.65;6.82;;;20.70;99.90;;;;;;4984889;28;19911;-84
2021/06/23 09:18:29;;;;;;;10.40;6.55;;;20.90;99.90;;;;;;4970418;28;20042;-85
2021/06/23 09:21:16;;;;;;;10.52;7.15;;;21.10;99.90;;;;;;4973100;28;20064;-84
2021/06/23 09:23:50;;;;;;;10.98;7.32;;;21.40;99.90;;;;;;4956703;28;20038;-84
2021/06/23 09:26:29;;;;;;;10.07;7.05;;;21.70;99.90;;;;;;4957272;28;20038;-86
2021/06/23 09:29:14;;;;;;;7.88;5.80;;;21.90;99.90;;;;;;4955964;28;20060;-85
2021/06/23 09:32:01;;;;;;;9.68;7.05;;;22.10;99.90;;;;;;4956968;28;20028;-85
2021/06/23 09:34:48;;;;;;;9.10;7.45;;;22.30;99.90;;;;;;4927317;28;20038;-85
2021/06/23 09:37:31;;;;;;;11.50;6.85;;;22.10;99.90;;;;;;4975877;28;20034;-84
2021/06/23 09:40:18;;;;;;;10.68;6.80;;;22.10;99.90;;;;;;4956433;28;20454;-86
2021/06/23 09:43:02;;;;;;;10.50;6.97;;;22.20;99.90;;;;;;4929049;28;20186;-85
2021/06/23 09:45:31;;;;;;;11.18;7.80;;;22.10;99.90;;;;;;4972036;28;20293;-85
2021/06/23 09:48:02;;;;;;;9.82;7.63;;;22.00;99.90;;;;;;4940742;28;20026;-84
2021/06/23 09:50:30;;;;;;;9.65;7.38;;;21.90;99.90;;;;;;4957985;28;20196;-85
2021/06/23 09:52:56;;;;;;;12.82;7.68;;;21.70;99.90;;;;;;4976764;28;20416;-85
2021/06/23 09:55:42;;;;;;;10.63;7.13;;;21.60;99.90;;;;;;4958693;28;20117;-84
2021/06/23 09:58:11;;;;;;;10.82;7.35;;;21.30;99.90;;;;;;4959968;28;20088;-85
2021/06/23 10:01:00;;;;;;;10.15;7.07;;;21.10;99.90;;;;;;4974557;28;20039;-84
2021/06/23 10:03:29;;;;;;;10.70;7.38;;;21.00;99.90;;;;;;4958184;28;20405;-85
2021/06/23 10:05:55;;;;;;;10.90;6.97;;;21.00;99.90;;;;;;4956233;28;20081;-84
2021/06/23 10:08:30;;;;;;;12.93;7.47;;;21.00;99.90;;;;;;4942205;28;20520;-84
2021/06/23 10:10:56;;;;;;;10.40;7.88;;;21.10;99.90;;;;;;4957152;28;20035;-84
2021/06/23 10:13:22;;;;;;;11.30;7.20;;;21.30;99.90;;;;;;4952735;28;20700;-85
2021/06/23 10:15:49;;;;;;;8.85;6.90;;;21.60;99.90;;;;;;4941634;28;20449;-84
2021/06/23 10:18:18;;;;;;;9.98;7.05;;;21.80;99.90;;;;;;4957627;28;20035;-84
2021/06/23 10:20:47;;;;;;;8.45;6.28;;;22.10;99.90;;;;;;4939002;28;20038;-84
2021/06/23 10:23:13;;;;;;;9.30;6.90;;;22.30;99.90;;;;;;4973805;28;20121;-84
2021/06/23 10:25:39;;;;;;;10.93;6.93;;;22.50;99.90;;;;;;4941093;28;20061;-83
2021/06/23 10:28:07;;;;;;;9.52;6.78;;;22.70;99.90;;;;;;4958400;28;20034;-84
2021/06/23 10:30:33;;;;;;;8.70;5.85;;;22.70;99.90;;;;;;4956989;28;20054;-83
2021/06/23 10:32:59;;;;;;;7.55;6.05;;;22.80;99.90;;;;;;4971478;28;20039;-85
2021/06/23 10:35:26;;;;;;;5.15;4.53;;;22.90;99.90;;;;;;4955209;28;20042;-85
2021/06/23 10:37:53;;;;;;;6.50;5.22;;;22.90;99.90;;;;;;4959016;28;20035;-84
2021/06/23 10:40:20;;;;;;;7.55;5.38;;;23.00;99.90;;;;;;4940265;28;20064;-85
2021/06/23 10:42:46;;;;;;;5.55;4.82;;;23.00;99.90;;;;;;4973657;28;20030;-84
2021/06/23 10:45:13;;;;;;;7.30;5.50;;;23.00;99.90;;;;;;4941121;28;20031;-84
2021/06/23 10:47:45;;;;;;;7.05;5.70;;;23.10;99.90;;;;;;4957109;28;20035;-84
2021/06/23 10:50:16;;;;;;;7.88;5.40;;;23.00;99.90;;;;;;4939115;28;20043;-85
2021/06/23 10:52:44;;;;;;;7.35;5.30;;;23.00;99.90;;;;;;4947340;28;20082;-84
2021/06/23 10:55:22;;;;;;;7.45;5.68;;;23.00;99.90;;;;;;4951889;28;20041;-85
2021/06/23 10:58:24;;;;;;;7.90;5.22;;;23.20;99.90;;;;;;4968144;28;20034;-84
2021/06/23 11:01:04;;;;;;;6.60;4.95;;;23.50;99.90;;;;;;4946127;29;20046;-85
2021/06/23 11:03:30;;;;;;;6.28;5.03;;;23.90;99.90;;;;;;4955128;28;20031;-84
2021/06/23 11:05:56;;;;;;;7.95;5.60;;;24.10;99.90;;;;;;4923865;28;20038;-86
2021/06/23 11:08:24;;;;;;;8.77;5.57;;;24.20;99.90;;;;;;4959513;28;20048;-85
2021/06/23 11:10:51;;;;;;;7.40;5.82;;;24.30;99.90;;;;;;4971977;28;20029;-84
2021/06/23 11:13:23;;;;;;;7.38;5.70;;;24.20;99.90;;;;;;4968224;28;20493;-85
2021/06/23 11:15:50;;;;;;;8.60;6.03;;;24.20;99.90;;;;;;4937521;28;20027;-85
2021/06/23 11:18:18;;;;;;;9.98;6.70;;;24.10;99.90;;;;;;4953025;28;20031;-87
2021/06/23 11:20:52;;;;;;;8.57;6.18;;;24.00;99.90;;;;;;4953054;28;20098;-86
2021/06/23 11:23:44;;;;;;;10.43;6.70;;;23.90;99.90;;;;;;4934381;28;20087;-86
2021/06/23 11:26:19;;;;;;;8.50;6.43;;;23.80;99.90;;;;;;4968364;28;20041;-84
2021/06/23 11:28:46;;;;;;;11.82;7.47;;;23.80;99.90;;;;;;4968762;28;20477;-84
2021/06/23 11:31:12;;;;;;;14.13;7.55;;;23.90;99.90;;;;;;4955460;28;20050;-84
2021/06/23 11:33:38;;;;;;;9.35;7.15;;;23.70;99.90;;;;;;4955777;28;20026;-86
2021/06/23 11:36:09;;;;;;;10.55;6.97;;;23.50;99.90;;;;;;4954996;28;20031;-84
2021/06/23 11:38:37;;;;;;;11.25;7.25;;;23.40;99.90;;;;;;4941725;28;20059;-85
2021/06/23 11:41:05;;;;;;;11.15;7.80;;;23.30;99.90;;;;;;4960052;28;20070;-86
2021/06/23 11:43:31;;;;;;;11.27;6.93;;;23.30;99.90;;;;;;4956478;28;20031;-86
2021/06/23 11:45:57;;;;;;;10.63;7.60;;;23.20;99.90;;;;;;4953314;28;20090;-85
2021/06/23 11:48:26;;;;;;;10.02;7.50;;;23.20;99.90;;;;;;4938597;28;20035;-86
2021/06/23 11:50:53;;;;;;;12.05;6.72;;;23.00;99.90;;;;;;4972700;28;20030;-85
2021/06/23 11:53:20;;;;;;;9.90;7.53;;;22.90;99.90;;;;;;4956434;28;20030;-88
2021/06/23 11:55:49;;;;;;;9.75;7.30;;;22.70;99.90;;;;;;4971835;28;20034;-86
2021/06/23 11:58:16;;;;;;;9.00;7.55;;;22.50;99.90;;;;;;4971811;28;20509;-86
2021/06/23 12:00:43;;;;;;;10.05;7.30;;;22.30;99.90;;;;;;4934067;29;20031;-87
2021/06/23 12:03:11;;;;;;;8.93;7.03;;;22.20;99.90;;;;;;4954154;28;20038;-85
2021/06/23 12:05:38;;;;;;;11.88;8.63;;;22.10;99.90;;;;;;4970811;28;20038;-85
2021/06/23 12:08:05;;;;;;;11.25;7.38;;;22.00;99.90;;;;;;4954513;28;20030;-86
2021/06/23 12:10:32;;;;;;;10.23;8.07;;;22.00;99.90;;;;;;4955863;28;20185;-85
2021/06/23 12:12:58;;;;;;;9.60;6.90;;;22.00;99.90;;;;;;4971634;28;20029;-86
2021/06/23 12:15:27;;;;;;;9.10;6.95;;;22.00;99.90;;;;;;4954379;28;20106;-87
2021/06/23 12:17:55;;;;;;;8.98;6.97;;;21.90;99.90;;;;;;4937548;28;20256;-86
2021/06/23 12:20:22;;;;;;;10.63;7.10;;;21.90;99.90;;;;;;4951312;28;20034;-85
2021/06/23 12:22:55;;;;;;;9.35;6.82;;;22.00;99.90;;;;;;4949567;29;20070;-85
2021/06/23 12:25:23;;;;;;;8.55;6.70;;;21.90;99.90;;;;;;4949647;28;20121;-86
2021/06/23 12:27:49;;;;;;;10.10;7.13;;;22.00;99.90;;;;;;4931466;28;20035;-86
2021/06/23 12:30:15;;;;;;;7.70;6.13;;;22.30;99.90;;;;;;4949815;28;20119;-87
2021/06/23 12:32:41;;;;;;;8.73;6.85;;;22.90;99.90;;;;;;4934526;28;20114;-86
2021/06/23 12:35:07;;;;;;;8.95;7.03;;;23.40;99.90;;;;;;4923983;28;20031;-88
2021/06/23 12:37:34;;;;;;;9.18;6.80;;;23.90;99.90;;;;;;4925513;28;20115;-88
2021/06/23 12:40:00;;;;;;;7.82;6.38;;;24.40;99.90;;;;;;4955182;28;20090;-85
2021/06/23 12:42:26;;;;;;;8.40;6.68;;;24.70;99.90;;;;;;4940815;28;20059;-85
2021/06/23 12:44:52;;;;;;;6.93;5.93;;;25.00;99.90;;;;;;4954767;28;20589;-86
2021/06/23 12:47:18;;;;;;;8.90;7.07;;;25.20;99.90;;;;;;4957302;28;20704;-84
2021/06/23 12:49:43;;;;;;;9.25;6.88;;;25.40;99.90;;;;;;4924832;28;20043;-85
2021/06/23 12:52:09;;;;;;;7.40;5.75;;;25.30;99.90;;;;;;4939515;28;20117;-87
2021/06/23 12:54:35;;;;;;;10.68;7.68;;;25.30;99.90;;;;;;4965975;28;20065;-88
2021/06/23 12:57:01;;;;;;;11.07;7.43;;;25.40;99.90;;;;;;4925176;28;20027;-86
2021/06/23 12:59:30;;;;;;;8.32;6.82;;;25.70;99.90;;;;;;4936247;28;20034;-87
2021/06/23 13:01:58;;;;;;;9.40;7.07;;;25.90;99.90;;;;;;4954372;28;20040;-89
2021/06/23 13:04:24;;;;;;;9.30;6.97;;;26.10;99.90;;;;;;4972286;28;20155;-88
2021/06/23 13:06:50;;;;;;;10.32;7.18;;;26.20;99.90;;;;;;4920066;29;20031;-86
2021/06/23 13:09:15;;;;;;;8.82;6.18;;;26.50;99.90;;;;;;4939620;28;20058;-85